Time;durP1;ratioP1;P1;durP2;ratioP2;P2;SDS_P1;SDS_P2;PMS_P1;PMS_P2;Temp;Humidity;BMP_temperature;BMP_pressure;BME280_temperature;BME280_humidity;BME280_pressure;Samples;Min_cycle;Max_cycle;Signal;HPM_P1;HPM_P2
2023/05/24 00:00:54;;;;;;;1.63;0.77;;;;;;;;;;4974009;28;20019;-78
2023/05/24 00:03:21;;;;;;;3.13;0.70;;;;;;;;;;4973626;28;20505;-78
2023/05/24 00:05:47;;;;;;;1.67;0.85;;;;;;;;;;4974001;28;20034;-78
2023/05/24 00:08:33;;;;;;;1.95;0.80;;;;;;;;;;4973476;28;20070;-78
2023/05/24 00:11:19;;;;;;;2.38;0.73;;;;;;;;;;4973712;28;20082;-78
2023/05/24 00:14:05;;;;;;;2.30;0.52;;;;;;;;;;4973514;28;20034;-78
2023/05/24 00:16:51;;;;;;;2.75;0.90;;;;;;;;;;4973412;28;20114;-77
2023/05/24 00:19:38;;;;;;;1.65;0.60;;;;;;;;;;4973450;28;20054;-78
2023/05/24 00:22:23;;;;;;;1.45;0.70;;;;;;;;;;4973354;28;20038;-78
2023/05/24 00:25:09;;;;;;;1.17;0.52;;;;;;;;;;4973278;28;20026;-77
2023/05/24 00:27:55;;;;;;;1.75;0.52;;;;;;;;;;4973353;28;20035;-78
2023/05/24 00:30:41;;;;;;;2.13;0.70;;;;;;;;;;4973234;28;20042;-78
2023/05/24 00:33:27;;;;;;;3.35;0.77;;;;;;;;;;4973296;28;20082;-77
2023/05/24 00:36:13;;;;;;;3.83;0.93;;;;;;;;;;4973320;28;20058;-77
2023/05/24 00:38:59;;;;;;;2.80;0.68;;;;;;;;;;4973190;28;20457;-77
2023/05/24 00:41:45;;;;;;;2.67;0.68;;;;;;;;;;4972955;28;20039;-77
2023/05/24 00:44:31;;;;;;;2.15;0.73;;;;;;;;;;4973134;28;20066;-77
2023/05/24 00:47:17;;;;;;;1.15;0.65;;;;;;;;;;4973546;28;20037;-77
2023/05/24 00:50:03;;;;;;;0.90;0.47;;;;;;;;;;4973133;28;20131;-75
2023/05/24 00:52:50;;;;;;;1.98;0.60;;;20.30;57.20;;;;;;4972995;28;20039;-75
2023/05/24 00:55:36;;;;;;;2.85;0.75;;;;;;;;;;4973112;28;20042;-74
2023/05/24 00:58:02;;;;;;;1.65;0.57;;;;;;;;;;4973031;28;20038;-75
2023/05/24 01:00:28;;;;;;;4.38;0.57;;;20.30;58.90;;;;;;4973128;28;20031;-74
2023/05/24 01:02:54;;;;;;;1.73;0.60;;;;;;;;;;4972799;28;20046;-75
2023/05/24 01:05:22;;;;;;;2.88;0.80;;;;;;;;;;4973242;28;20038;-75
2023/05/24 01:07:48;;;;;;;2.22;0.82;;;;;;;;;;4972977;28;20077;-75
2023/05/24 01:10:58;;;;;;;2.38;0.88;;;19.90;54.20;;;;;;4973005;28;20042;-75
2023/05/24 01:13:31;;;;;;;2.17;0.67;;;20.30;59.10;;;;;;4970733;28;20035;-75
2023/05/24 01:16:21;;;;;;;2.97;0.60;;;20.30;52.40;;;;;;4973043;28;20290;-75
2023/05/24 01:18:52;;;;;;;2.15;0.80;;;20.20;57.30;;;;;;4973026;28;20027;-75
2023/05/24 01:21:47;;;;;;;1.70;0.70;;;20.20;56.90;;;;;;4973002;28;20034;-75
2023/05/24 01:24:30;;;;;;;2.10;0.75;;;20.10;51.20;;;;;;4955743;28;20593;-75
2023/05/24 01:27:07;;;;;;;1.42;0.50;;;20.30;51.40;;;;;;4973122;28;20106;-75
2023/05/24 01:29:34;;;;;;;1.42;0.80;;;20.30;57.30;;;;;;4972992;28;20031;-75
2023/05/24 01:32:00;;;;;;;1.10;0.70;;;;;;;;;;4972805;28;20050;-75
2023/05/24 01:34:26;;;;;;;2.25;0.75;;;;;;;;;;4972837;28;20031;-75
2023/05/24 01:36:52;;;;;;;2.70;1.10;;;;;;;;;;4972780;28;20057;-75
2023/05/24 01:39:20;;;;;;;1.50;0.50;;;20.10;56.60;;;;;;4972878;28;20027;-75
2023/05/24 01:41:54;;;;;;;2.28;0.77;;;20.10;51.10;;;;;;4972780;28;20478;-75
2023/05/24 01:44:37;;;;;;;2.58;1.15;;;20.20;53.70;;;;;;4972824;28;20066;-75
2023/05/24 01:47:26;;;;;;;1.90;0.80;;;20.00;56.90;;;;;;4972717;28;20019;-75
2023/05/24 01:49:56;;;;;;;3.42;0.90;;;20.00;60.20;;;;;;4972600;28;20030;-75
2023/05/24 01:52:25;;;;;;;2.08;0.77;;;20.00;60.20;;;;;;4972726;28;20023;-75
2023/05/24 01:54:51;;;;;;;1.70;0.73;;;20.00;58.50;;;;;;4975014;28;20031;-75
2023/05/24 01:57:22;;;;;;;2.78;0.80;;;20.10;60.40;;;;;;4976263;28;20106;-75
2023/05/24 01:59:49;;;;;;;2.38;0.80;;;20.00;60.20;;;;;;4976187;28;20039;-75
2023/05/24 02:02:15;;;;;;;2.58;1.15;;;;;;;;;;4975938;28;20031;-75
2023/05/24 02:04:41;;;;;;;2.45;0.82;;;;;;;;;;4975994;28;20031;-75
2023/05/24 02:07:07;;;;;;;2.20;0.80;;;;;;;;;;4975844;28;20039;-73
2023/05/24 02:09:33;;;;;;;1.83;0.93;;;;;;;;;;4975859;28;20034;-75
2023/05/24 02:11:59;;;;;;;1.20;0.80;;;;;;;;;;4975796;28;20181;-75
2023/05/24 02:14:25;;;;;;;1.63;0.60;;;;;;;;;;4975829;28;20033;-75
2023/05/24 02:16:51;;;;;;;2.85;0.80;;;;;;;;;;4975835;28;20031;-73
2023/05/24 02:19:17;;;;;;;2.42;0.82;;;;;;;;;;4975738;28;20049;-75
2023/05/24 02:21:43;;;;;;;1.90;0.70;;;;;;;;;;4975756;28;20031;-75
2023/05/24 02:24:13;;;;;;;1.42;0.82;;;;;;;;;;4975522;28;20548;-75
2023/05/24 02:26:39;;;;;;;0.80;0.43;;;;;;;;;;4975740;28;20054;-75
2023/05/24 02:29:05;;;;;;;3.20;1.02;;;;;;;;;;4975519;28;20049;-75
2023/05/24 02:31:31;;;;;;;1.38;0.60;;;;;;;;;;4975586;28;20113;-75
2023/05/24 02:33:58;;;;;;;1.98;0.73;;;;;;;;;;4975475;28;20035;-75
2023/05/24 02:36:24;;;;;;;2.13;0.80;;;;;;;;;;4975491;28;20478;-75
2023/05/24 02:38:50;;;;;;;2.03;0.70;;;19.70;58.10;;;;;;4975459;28;20037;-75
2023/05/24 02:41:16;;;;;;;1.65;0.82;;;;;;;;;;4975271;28;20074;-75
2023/05/24 02:43:43;;;;;;;2.33;0.90;;;;;;;;;;4975385;28;20031;-75
2023/05/24 02:46:09;;;;;;;2.05;0.77;;;;;;;;;;4975239;28;20545;-75
2023/05/24 02:48:35;;;;;;;3.60;0.93;;;;;;;;;;4975295;28;20054;-76
2023/05/24 02:51:04;;;;;;;1.58;0.70;;;;;;;;;;4975136;28;20049;-75
2023/05/24 02:53:30;;;;;;;1.95;0.80;;;;;;;;;;4975106;28;20560;-75
2023/05/24 02:55:56;;;;;;;2.28;0.93;;;;;;;;;;4975449;28;20038;-75
2023/05/24 02:58:23;;;;;;;2.40;0.90;;;;;;;;;;4975011;28;20050;-75
2023/05/24 03:00:49;;;;;;;1.88;0.73;;;;;;;;;;4975086;28;20117;-75
2023/05/24 03:03:15;;;;;;;1.48;0.75;;;;;;;;;;4974716;28;20136;-75
2023/05/24 03:05:41;;;;;;;3.20;0.90;;;;;;;;;;4974049;28;20477;-75
2023/05/24 03:08:07;;;;;;;1.48;0.82;;;;;;;;;;4974839;28;20046;-75
2023/05/24 03:10:33;;;;;;;1.75;0.68;;;;;;;;;;4974687;28;20090;-75
2023/05/24 03:12:59;;;;;;;1.55;0.70;;;;;;;;;;4974826;28;20062;-75
2023/05/24 03:15:26;;;;;;;1.85;0.82;;;;;;;;;;4975073;28;20114;-75
2023/05/24 03:17:52;;;;;;;2.20;0.93;;;;;;;;;;4974945;28;20037;-75
2023/05/24 03:20:19;;;;;;;2.22;0.65;;;;;;;;;;4974593;28;20073;-75
2023/05/24 03:22:46;;;;;;;1.83;0.90;;;;;;;;;;4974802;28;20031;-75
2023/05/24 03:25:12;;;;;;;1.50;0.63;;;;;;;;;;4974608;28;20037;-75
2023/05/24 03:27:38;;;;;;;2.65;1.13;;;;;;;;;;4957036;28;20027;-75
2023/05/24 03:30:05;;;;;;;1.35;0.77;;;;;;;;;;4974403;28;20555;-75
2023/05/24 03:32:31;;;;;;;2.40;0.85;;;;;;;;;;4974679;28;20047;-75
2023/05/24 03:35:00;;;;;;;1.52;0.75;;;;;;;;;;4974385;28;20082;-75
2023/05/24 03:37:26;;;;;;;2.40;1.08;;;;;;;;;;4974198;28;20035;-75
2023/05/24 03:39:52;;;;;;;1.60;0.77;;;;;;;;;;4956836;28;20035;-75
2023/05/24 03:42:18;;;;;;;2.88;0.77;;;;;;;;;;4974204;28;20058;-75
2023/05/24 03:44:44;;;;;;;2.15;0.68;;;;;;;;;;4974245;28;20023;-75
2023/05/24 03:47:10;;;;;;;3.22;1.30;;;;;;;;;;4974239;28;20089;-75
2023/05/24 03:49:36;;;;;;;2.08;0.90;;;;;;;;;;4973938;28;20528;-75
2023/05/24 03:52:02;;;;;;;1.95;1.10;;;;;;;;;;4974096;28;20070;-74
2023/05/24 03:54:28;;;;;;;2.03;0.95;;;;;;;;;;4973893;28;20034;-75
2023/05/24 03:56:54;;;;;;;1.33;0.70;;;;;;;;;;4973946;28;20030;-75
2023/05/24 03:59:21;;;;;;;2.90;0.80;;;;;;;;;;4973968;28;20105;-75
2023/05/24 04:01:47;;;;;;;1.60;0.73;;;;;;;;;;4974118;28;20488;-75
2023/05/24 04:04:13;;;;;;;3.33;1.17;;;;;;;;;;4973652;28;20047;-75
2023/05/24 04:06:40;;;;;;;1.85;0.70;;;;;;;;;;4973807;28;20363;-75
2023/05/24 04:09:06;;;;;;;2.00;0.80;;;;;;;;;;4973897;28;20374;-75
2023/05/24 04:11:32;;;;;;;1.80;0.77;;;;;;;;;;4973602;28;20117;-75
2023/05/24 04:13:59;;;;;;;3.85;1.55;;;;;;;;;;4973827;28;20038;-75
2023/05/24 04:16:26;;;;;;;3.03;0.90;;;;;;;;;;4973742;28;20097;-75
2023/05/24 04:18:55;;;;;;;1.98;0.77;;;19.30;61.40;;;;;;4973695;28;20031;-75
2023/05/24 04:21:22;;;;;;;2.70;1.08;;;;;;;;;;4973868;28;20049;-75
2023/05/24 04:23:48;;;;;;;3.05;0.95;;;;;;;;;;4973354;28;20442;-75
2023/05/24 04:26:16;;;;;;;1.85;1.00;;;;;;;;;;4973441;28;20034;-75
2023/05/24 04:28:44;;;;;;;1.73;0.70;;;;;;;;;;4973378;28;20031;-75
2023/05/24 04:31:10;;;;;;;2.25;0.63;;;;;;;;;;4973291;28;20105;-75
2023/05/24 04:33:38;;;;;;;2.95;0.77;;;;;;;;;;4973644;28;20084;-75
2023/05/24 04:36:04;;;;;;;2.63;1.00;;;;;;;;;;4973669;28;20061;-75
2023/05/24 04:38:33;;;;;;;3.13;0.88;;;;;;;;;;4973564;28;20027;-75
2023/05/24 04:40:59;;;;;;;4.60;0.85;;;;;;;;;;4973585;28;20393;-75
2023/05/24 04:43:26;;;;;;;2.28;1.00;;;;;;;;;;4973525;28;20031;-75
2023/05/24 04:45:56;;;;;;;1.27;0.70;;;;;;;;;;4973464;28;20054;-75
2023/05/24 04:48:23;;;;;;;2.40;1.10;;;19.20;58.70;;;;;;4973759;28;20068;-75
2023/05/24 04:50:53;;;;;;;3.03;1.20;;;19.20;55.70;;;;;;4973293;28;20118;-75
2023/05/24 04:53:20;;;;;;;2.35;0.90;;;19.20;59.00;;;;;;4973769;28;20045;-75
2023/05/24 04:55:47;;;;;;;2.60;1.10;;;19.20;61.80;;;;;;4956192;28;20098;-75
2023/05/24 04:58:14;;;;;;;1.77;0.85;;;;;;;;;;4973400;28;20023;-75
2023/05/24 05:00:41;;;;;;;3.50;0.70;;;;;;;;;;4973254;28;20035;-75
2023/05/24 05:03:08;;;;;;;1.65;0.73;;;;;;;;;;4972877;28;20112;-75
2023/05/24 05:05:35;;;;;;;2.05;1.00;;;;;;;;;;4973521;28;20031;-75
2023/05/24 05:08:02;;;;;;;1.48;0.80;;;;;;;;;;4973355;28;20506;-74
2023/05/24 05:10:29;;;;;;;3.72;0.90;;;;;;;;;;4973361;28;20036;-75
2023/05/24 05:12:55;;;;;;;3.35;0.88;;;;;;;;;;4972817;28;20501;-75
2023/05/24 05:15:23;;;;;;;2.00;0.65;;;;;;;;;;4973315;28;20077;-82
2023/05/24 05:17:49;;;;;;;2.97;1.15;;;;;;;;;;4973189;28;20039;-75
2023/05/24 05:20:16;;;;;;;2.70;1.00;;;;;;;;;;4973321;28;20033;-75
2023/05/24 05:22:46;;;;;;;2.65;0.90;;;19.00;56.40;;;;;;4975114;28;20502;-75
2023/05/24 05:25:12;;;;;;;;;;;19.10;63.00;;;;;;4973413;28;20033;-74
2023/05/24 05:27:38;;;;;;;2.70;1.08;;;;;;;;;;4973155;28;19910;-74
2023/05/24 05:30:05;;;;;;;1.77;0.90;;;;;;;;;;4975796;28;20101;-74
2023/05/24 05:32:32;;;;;;;3.40;1.30;;;;;;;;;;4976957;28;20038;-74
2023/05/24 05:34:58;;;;;;;2.38;0.77;;;;;;;;;;4976424;28;20031;-73
2023/05/24 05:37:24;;;;;;;2.63;0.80;;;;;;;;;;4976746;28;20027;-73
2023/05/24 05:39:51;;;;;;;1.52;0.88;;;;;;;;;;4976693;28;20086;-74
2023/05/24 05:42:17;;;;;;;3.17;1.00;;;;;;;;;;4976550;28;20121;-73
2023/05/24 05:44:44;;;;;;;1.20;0.90;;;;;;;;;;4976278;28;20038;-73
2023/05/24 05:47:10;;;;;;;3.47;1.00;;;;;;;;;;4976169;28;20037;-73
2023/05/24 05:49:37;;;;;;;2.53;0.68;;;;;;;;;;4976205;28;20039;-72
2023/05/24 05:52:06;;;;;;;4.78;1.17;;;19.00;57.00;;;;;;4975993;28;20037;-73
2023/05/24 05:54:33;;;;;;;2.80;0.82;;;;;;;;;;4976447;28;20468;-72
2023/05/24 05:56:59;;;;;;;3.42;0.60;;;;;;;;;;4976192;28;20034;-73
2023/05/24 05:59:25;;;;;;;3.47;1.00;;;;;;;;;;4976272;28;20057;-73
2023/05/24 06:01:51;;;;;;;3.33;1.05;;;;;;;;;;4975996;28;20027;-74
2023/05/24 06:04:18;;;;;;;2.05;1.00;;;;;;;;;;4975867;28;20094;-73
2023/05/24 06:06:48;;;;;;;2.22;0.73;;;;;;;;;;4976451;28;20532;-74
2023/05/24 06:09:15;;;;;;;3.10;1.13;;;19.10;63.20;;;;;;4976392;28;20031;-74
2023/05/24 06:11:43;;;;;;;4.43;1.50;;;;;;;;;;4976353;28;20031;-74
2023/05/24 06:14:17;;;;;;;2.50;0.98;;;19.10;62.80;;;;;;4975999;28;20147;-73
2023/05/24 06:16:44;;;;;;;4.22;1.27;;;19.10;60.10;;;;;;4976174;28;20031;-74
2023/05/24 06:19:12;;;;;;;5.03;1.38;;;19.00;61.00;;;;;;4975693;28;20486;-74
2023/05/24 06:21:41;;;;;;;4.43;1.27;;;;;;;;;;4975989;28;20387;-74
2023/05/24 06:24:08;;;;;;;4.43;0.88;;;;;;;;;;4975861;28;20400;-73
2023/05/24 06:26:36;;;;;;;2.83;1.08;;;19.10;63.20;;;;;;4975889;28;20370;-74
2023/05/24 06:29:02;;;;;;;2.63;1.00;;;;;;;;;;4975476;28;20489;-74
2023/05/24 06:31:29;;;;;;;3.17;0.73;;;;;;;;;;4975477;28;20121;-75
2023/05/24 06:33:55;;;;;;;2.80;1.08;;;;;;;;;;4977912;28;20026;-73
2023/05/24 06:36:21;;;;;;;3.13;1.17;;;;;;;;;;4978142;28;20037;-73
2023/05/24 06:38:48;;;;;;;3.63;0.98;;;;;;;;;;4975753;28;20389;-74
2023/05/24 06:41:15;;;;;;;3.53;1.20;;;19.10;63.30;;;;;;4974273;28;20023;-73
2023/05/24 06:43:41;;;;;;;2.50;1.30;;;;;;;;;;4975412;28;20047;-74
2023/05/24 06:46:07;;;;;;;2.40;0.85;;;;;;;;;;4975279;28;20039;-74
2023/05/24 06:48:33;;;;;;;6.75;1.10;;;;;;;;;;4975231;28;20030;-73
2023/05/24 06:50:59;;;;;;;4.40;1.17;;;;;;;;;;4975190;28;20394;-75
2023/05/24 06:53:26;;;;;;;3.50;1.15;;;;;;;;;;4975165;28;20430;-74
2023/05/24 06:55:52;;;;;;;6.03;1.73;;;;;;;;;;4975246;28;20027;-73
2023/05/24 06:58:18;;;;;;;3.67;1.30;;;;;;;;;;4974988;28;20023;-75
2023/05/24 07:00:44;;;;;;;3.10;1.40;;;;;;;;;;4975610;28;20437;-74
2023/05/24 07:03:12;;;;;;;3.47;1.20;;;19.20;63.80;;;;;;4974875;28;20421;-75
2023/05/24 07:05:38;;;;;;;3.65;1.15;;;;;;;;;;4975089;28;20516;-75
2023/05/24 07:08:04;;;;;;;5.57;1.27;;;;;;;;;;4974965;28;20433;-74
2023/05/24 07:10:30;;;;;;;2.92;1.15;;;;;;;;;;4957569;28;20027;-74
2023/05/24 07:12:56;;;;;;;6.05;1.45;;;;;;;;;;4974913;28;20038;-75
2023/05/24 07:15:22;;;;;;;3.25;1.20;;;;;;;;;;4974894;28;20106;-74
2023/05/24 07:17:48;;;;;;;4.72;1.33;;;;;;;;;;4974857;28;20050;-75
2023/05/24 07:20:15;;;;;;;4.65;0.90;;;;;;;;;;4974757;28;20035;-75
2023/05/24 07:22:42;;;;;;;3.63;1.55;;;;;;;;;;4975007;28;20030;-74
2023/05/24 07:25:09;;;;;;;5.60;1.30;;;;;;;;;;4974879;28;20039;-74
2023/05/24 07:27:35;;;;;;;3.72;1.30;;;;;;;;;;4974581;28;20054;-74
2023/05/24 07:30:02;;;;;;;3.88;1.45;;;;;;;;;;4974495;28;20042;-74
2023/05/24 07:32:28;;;;;;;2.70;0.98;;;;;;;;;;4974490;28;20029;-74
2023/05/24 07:34:54;;;;;;;4.43;0.90;;;;;;;;;;4974429;28;20106;-74
2023/05/24 07:37:22;;;;;;;3.30;1.08;;;;;;;;;;4974297;28;20114;-74
2023/05/24 07:39:49;;;;;;;3.67;1.25;;;;;;;;;;4974406;28;20031;-73
2023/05/24 07:42:15;;;;;;;3.90;1.20;;;;;;;;;;4974335;28;20108;-73
2023/05/24 07:44:41;;;;;;;4.78;1.20;;;;;;;;;;4974032;28;20133;-73
2023/05/24 07:47:07;;;;;;;2.40;0.98;;;;;;;;;;4974165;28;20097;-73
2023/05/24 07:49:33;;;;;;;3.92;1.13;;;;;;;;;;4973987;28;20370;-73
2023/05/24 07:51:59;;;;;;;2.75;1.02;;;;;;;;;;4973995;28;20454;-75
2023/05/24 07:54:25;;;;;;;3.55;1.20;;;;;;;;;;4973997;28;20023;-74
2023/05/24 07:56:52;;;;;;;3.47;1.00;;;;;;;;;;4974014;28;20122;-73
2023/05/24 07:59:18;;;;;;;5.05;1.85;;;;;;;;;;4973976;28;20022;-75
2023/05/24 08:01:44;;;;;;;4.47;1.23;;;;;;;;;;4973865;28;20402;-75
2023/05/24 08:04:10;;;;;;;2.08;1.10;;;;;;;;;;4956360;28;20042;-74
2023/05/24 08:06:36;;;;;;;4.13;1.08;;;;;;;;;;4973730;28;20034;-76
2023/05/24 08:09:03;;;;;;;2.72;1.02;;;;;;;;;;4957036;28;20125;-75
2023/05/24 08:11:29;;;;;;;2.65;1.08;;;;;;;;;;4973689;28;20158;-73
2023/05/24 08:13:55;;;;;;;2.90;1.00;;;;;;;;;;4973741;28;20393;-73
2023/05/24 08:16:21;;;;;;;2.47;0.98;;;;;;;;;;4973707;28;20031;-73
2023/05/24 08:18:47;;;;;;;3.67;1.40;;;;;;;;;;4973884;28;20046;-73
2023/05/24 08:21:13;;;;;;;4.75;1.42;;;;;;;;;;4973733;28;20119;-74
2023/05/24 08:23:40;;;;;;;3.60;0.95;;;;;;;;;;4973722;28;20030;-73
2023/05/24 08:26:06;;;;;;;4.22;1.40;;;;;;;;;;4973639;28;20155;-73
2023/05/24 08:28:32;;;;;;;3.65;1.15;;;;;;;;;;4973549;28;20110;-74
2023/05/24 08:30:58;;;;;;;2.88;0.90;;;;;;;;;;4973702;28;20038;-76
2023/05/24 08:33:24;;;;;;;5.13;1.00;;;;;;;;;;4973683;28;20385;-74
2023/05/24 08:35:50;;;;;;;2.50;1.20;;;;;;;;;;4973352;28;20035;-74
2023/05/24 08:38:17;;;;;;;2.72;0.95;;;;;;;;;;4973376;28;20027;-73
2023/05/24 08:40:43;;;;;;;2.90;1.00;;;;;;;;;;4973250;28;20086;-73
2023/05/24 08:43:10;;;;;;;3.10;1.08;;;19.60;64.50;;;;;;4973385;28;20031;-73
2023/05/24 08:45:37;;;;;;;1.98;0.80;;;;;;;;;;4973377;28;20082;-73
2023/05/24 08:48:03;;;;;;;4.45;1.20;;;;;;;;;;4973428;28;20034;-81
2023/05/24 08:50:30;;;;;;;3.95;1.58;;;19.60;62.20;;;;;;4973488;28;20053;-82
2023/05/24 08:52:58;;;;;;;4.78;1.30;;;19.70;65.00;;;;;;4973406;28;20031;-81
2023/05/24 08:55:24;;;;;;;4.45;1.05;;;;;;;;;;4973459;28;20054;-81
2023/05/24 08:57:51;;;;;;;1.85;0.98;;;;;;;;;;4973288;28;20035;-81
2023/05/24 09:00:18;;;;;;;2.85;1.10;;;19.80;62.10;;;;;;4973528;28;20039;-81
2023/05/24 09:02:45;;;;;;;6.50;1.23;;;19.80;64.50;;;;;;4972922;28;20071;-81
2023/05/24 09:05:15;;;;;;;3.45;1.02;;;19.80;64.80;;;;;;4976619;28;20038;-81
2023/05/24 09:07:41;;;;;;;2.72;1.35;;;;;;;;;;4977183;28;20443;-81
2023/05/24 09:10:08;;;;;;;6.18;1.27;;;20.60;64.80;;;;;;4977261;28;20121;-81
2023/05/24 09:12:36;;;;;;;2.25;1.00;;;20.00;65.10;;;;;;4977459;28;20023;-81
2023/05/24 09:15:04;;;;;;;3.35;1.27;;;20.00;63.60;;;;;;4977282;28;20015;-81
2023/05/24 09:17:30;;;;;;;4.95;1.38;;;;;;;;;;4977285;28;20037;-82
2023/05/24 09:20:01;;;;;;;2.40;1.02;;;;;;;;;;4977237;28;20035;-81
2023/05/24 09:22:47;;;;;;;2.83;1.10;;;20.20;63.80;;;;;;4975063;28;20039;-82
2023/05/24 09:25:14;;;;;;;3.42;1.42;;;;;;;;;;4977166;28;20015;-81
2023/05/24 09:27:40;;;;;;;3.30;1.00;;;;;;;;;;4976842;28;20035;-81
2023/05/24 09:30:11;;;;;;;5.55;1.50;;;20.40;58.50;;;;;;4976909;28;20043;-81
2023/05/24 09:32:37;;;;;;;2.78;1.13;;;;;;;;;;4976985;28;20101;-82
2023/05/24 09:35:08;;;;;;;3.13;1.30;;;20.50;64.20;;;;;;4976678;28;20449;-80
2023/05/24 09:37:35;;;;;;;2.85;1.25;;;20.50;63.80;;;;;;4976659;28;20097;-81
2023/05/24 09:40:01;;;;;;;5.05;1.40;;;;;;;;;;4976779;28;20063;-77
2023/05/24 09:42:28;;;;;;;3.45;1.42;;;;;;;;;;4976724;28;20034;-77
2023/05/24 09:45:08;;;;;;;6.68;1.70;;;20.70;57.40;;;;;;4976316;28;20102;-76
2023/05/24 09:47:35;;;;;;;5.63;1.35;;;20.70;63.90;;;;;;4976524;28;20516;-77
2023/05/24 09:50:02;;;;;;;3.25;1.30;;;;;;;;;;4976362;28;20066;-81
2023/05/24 09:52:28;;;;;;;2.63;1.30;;;;;;;;;;4976782;28;20031;-76
2023/05/24 09:54:55;;;;;;;3.33;2.05;;;;;;;;;;4976450;28;20054;-77
2023/05/24 09:57:21;;;;;;;3.00;1.23;;;;;;;;;;4976506;28;20134;-76
2023/05/24 09:59:51;;;;;;;4.10;1.27;;;21.00;57.60;;;;;;4976583;28;20034;-78
2023/05/24 10:02:21;;;;;;;4.05;1.60;;;21.10;63.60;;;;;;4976412;28;20093;-78
2023/05/24 10:04:48;;;;;;;4.82;1.58;;;;;;;;;;4976587;28;20102;-77
2023/05/24 10:07:15;;;;;;;4.20;1.70;;;21.20;63.40;;;;;;4976305;28;20130;-77
2023/05/24 10:09:41;;;;;;;7.15;1.88;;;21.30;61.40;;;;;;4976005;28;20049;-76
2023/05/24 10:12:08;;;;;;;4.95;1.55;;;;;;;;;;4976016;28;20041;-77
2023/05/24 10:14:37;;;;;;;8.30;1.98;;;21.30;62.40;;;;;;4958404;28;20031;-76
2023/05/24 10:17:05;;;;;;;3.38;1.67;;;21.30;62.40;;;;;;4976314;28;20034;-75
2023/05/24 10:19:33;;;;;;;4.93;1.60;;;21.30;62.80;;;;;;4976030;28;20474;-76
2023/05/24 10:22:00;;;;;;;5.18;1.45;;;;;;;;;;4976126;28;20098;-75
2023/05/24 10:24:34;;;;;;;8.88;2.13;;;21.50;61.30;;;;;;4976135;28;20034;-76
2023/05/24 10:27:04;;;;;;;4.18;1.85;;;21.60;60.10;;;;;;4975601;28;20494;-76
2023/05/24 10:29:51;;;;;;;4.88;1.75;;;21.60;54.60;;;;;;4975926;28;20435;-76
2023/05/24 10:32:18;;;;;;;6.18;1.70;;;21.70;59.50;;;;;;4976037;28;20031;-76
2023/05/24 10:34:46;;;;;;;5.20;1.70;;;21.80;61.00;;;;;;4976059;28;20023;-75
2023/05/24 10:37:13;;;;;;;3.92;1.45;;;;;;;;;;4975890;28;20104;-77
2023/05/24 10:39:40;;;;;;;6.30;2.05;;;21.90;56.90;;;;;;4975863;28;20030;-77
2023/05/24 10:42:07;;;;;;;5.53;1.60;;;;;;;;;;4975764;28;20094;-77
2023/05/24 10:44:33;;;;;;;6.57;1.90;;;;;;;;;;4958048;28;20022;-77
2023/05/24 10:47:11;;;;;;;6.88;1.83;;;21.90;52.70;;;;;;4975276;28;20045;-77
2023/05/24 10:49:38;;;;;;;6.05;1.70;;;21.90;58.20;;;;;;4975211;28;20505;-77
2023/05/24 10:52:08;;;;;;;4.97;1.60;;;21.80;52.30;;;;;;4975305;28;20030;-77
2023/05/24 10:54:35;;;;;;;6.60;1.67;;;;;;;;;;4975258;28;20177;-77
2023/05/24 10:57:03;;;;;;;5.95;2.05;;;21.90;56.60;;;;;;4975544;28;20031;-77
2023/05/24 10:59:33;;;;;;;4.53;2.10;;;21.80;60.00;;;;;;4975405;28;20393;-79
2023/05/24 11:02:00;;;;;;;3.13;1.60;;;22.10;58.20;;;;;;4976181;28;20413;-77
2023/05/24 11:04:32;;;;;;;6.40;1.73;;;22.20;54.50;;;;;;4974939;28;20062;-77
2023/05/24 11:07:08;;;;;;;5.65;1.80;;;22.20;59.40;;;;;;4975190;28;20027;-77
2023/05/24 11:09:36;;;;;;;4.78;1.63;;;22.40;57.00;;;;;;4974803;28;20026;-78
2023/05/24 11:12:06;;;;;;;4.53;1.90;;;22.40;59.90;;;;;;4974950;28;20369;-78
2023/05/24 11:14:35;;;;;;;;;;;22.40;60.10;;;;;;4975294;28;20023;-78
2023/05/24 11:17:01;;;;;;;3.35;1.23;;;;;;;;;;4974833;28;20381;-78
2023/05/24 11:19:37;;;;;;;5.90;2.08;;;22.70;90.50;;;;;;4974650;28;20082;-77
2023/05/24 11:22:06;;;;;;;5.80;1.73;;;22.70;53.70;;;;;;4974545;28;20027;-77
2023/05/24 11:24:33;;;;;;;5.20;2.03;;;;;;;;;;4974537;28;20026;-77
2023/05/24 11:27:01;;;;;;;4.57;1.88;;;22.70;90.10;;;;;;4973856;28;20030;-77
2023/05/24 11:29:27;;;;;;;5.25;1.73;;;;;;;;;;4974363;28;20482;-77
2023/05/24 11:32:03;;;;;;;6.15;1.77;;;22.60;53.90;;;;;;4974537;28;20038;-77
2023/05/24 11:34:30;;;;;;;8.05;1.92;;;;;;;;;;4974585;28;20030;-77
2023/05/24 11:36:58;;;;;;;4.18;1.80;;;22.50;53.90;;;;;;4974852;28;20033;-77
2023/05/24 11:39:24;;;;;;;4.00;1.75;;;;;;;;;;4974447;28;20047;-77
2023/05/24 11:41:51;;;;;;;4.57;1.75;;;;;;;;;;4974671;28;20162;-78
2023/05/24 11:44:18;;;;;;;3.65;1.45;;;22.50;55.80;;;;;;4974425;28;20149;-79
2023/05/24 11:46:57;;;;;;;5.18;1.98;;;22.50;54.40;;;;;;4974806;28;20035;-78
2023/05/24 11:49:24;;;;;;;7.68;1.95;;;;;;;;;;4974559;28;20033;-78
2023/05/24 11:51:56;;;;;;;6.28;1.75;;;22.40;54.50;;;;;;4974605;28;20122;-79
2023/05/24 11:54:23;;;;;;;5.07;1.50;;;;;;;;;;4974146;28;20046;-78
2023/05/24 11:56:50;;;;;;;3.97;2.05;;;;;;;;;;4974449;28;20084;-79
2023/05/24 11:59:21;;;;;;;5.18;1.50;;;22.40;54.60;;;;;;4974576;28;20101;-78
2023/05/24 12:01:48;;;;;;;5.65;2.00;;;;;;;;;;4974472;28;20027;-78
2023/05/24 12:04:15;;;;;;;6.78;1.85;;;;;;;;;;4974013;28;20046;-78
2023/05/24 12:06:42;;;;;;;4.03;1.52;;;22.30;54.00;;;;;;4974218;28;20039;-78
2023/05/24 12:09:11;;;;;;;6.38;1.98;;;22.40;54.70;;;;;;4974064;28;20489;-79
2023/05/24 12:11:43;;;;;;;2.87;1.33;;;22.30;50.30;;;;;;4973719;28;20046;-78
2023/05/24 12:14:39;;;;;;;5.55;1.90;;;22.30;50.10;;;;;;4974332;28;20022;-77
2023/05/24 12:17:13;;;;;;;5.35;1.80;;;22.70;90.70;;;;;;4956356;28;20111;-77
2023/05/24 12:19:42;;;;;;;4.47;1.80;;;22.40;55.30;;;;;;4974251;28;20026;-78
2023/05/24 12:22:09;;;;;;;6.72;1.85;;;;;;;;;;4974265;28;20014;-78
2023/05/24 12:24:36;;;;;;;8.23;2.13;;;22.30;55.00;;;;;;4974065;28;20034;-77
2023/05/24 12:27:07;;;;;;;3.78;1.60;;;22.20;54.10;;;;;;4973889;28;20031;-78
2023/05/24 12:29:35;;;;;;;4.57;1.60;;;22.30;55.30;;;;;;4974087;28;20030;-78
2023/05/24 12:32:02;;;;;;;5.55;1.70;;;;;;;;;;4974182;28;20093;-78
2023/05/24 12:34:28;;;;;;;5.85;1.63;;;;;;;;;;4973655;28;20092;-78
2023/05/24 12:36:55;;;;;;;5.43;2.08;;;;;;;;;;4973939;28;20142;-78
2023/05/24 12:39:35;;;;;;;3.13;1.88;;;22.30;51.00;;;;;;4973598;28;20023;-78
2023/05/24 12:42:02;;;;;;;5.53;2.35;;;22.30;55.90;;;;;;4973774;28;20065;-78
2023/05/24 12:44:35;;;;;;;6.03;1.58;;;22.70;90.80;;;;;;4973695;28;20066;-78
2023/05/24 12:47:03;;;;;;;3.50;1.48;;;22.50;90.90;;;;;;4973679;28;20643;-78
2023/05/24 12:49:30;;;;;;;4.55;1.45;;;22.30;55.10;;;;;;4973301;28;20030;-78
2023/05/24 12:51:56;;;;;;;5.47;1.88;;;;;;;;;;4973668;28;20030;-79
2023/05/24 12:54:24;;;;;;;3.63;1.42;;;22.30;58.10;;;;;;4973975;28;20042;-79
2023/05/24 12:56:50;;;;;;;4.35;1.45;;;22.30;54.30;;;;;;4973576;28;20359;-85
2023/05/24 12:59:16;;;;;;;4.38;1.48;;;22.60;90.80;;;;;;4973691;28;20039;-80
2023/05/24 13:01:45;;;;;;;6.00;1.90;;;;;;;;;;4973517;28;20031;-81
2023/05/24 13:04:11;;;;;;;4.22;1.67;;;;;;;;;;4973379;28;20401;-77
2023/05/24 13:06:38;;;;;;;3.33;1.80;;;;;;;;;;4973144;28;20540;-78
2023/05/24 13:09:05;;;;;;;6.78;2.15;;;;;;;;;;4973338;28;20058;-77
2023/05/24 13:11:31;;;;;;;4.63;1.90;;;;;;;;;;4973517;28;20053;-77
2023/05/24 13:13:58;;;;;;;4.13;1.50;;;;;;;;;;4973454;28;20027;-76
2023/05/24 13:16:25;;;;;;;5.13;1.90;;;;;;;;;;4973239;28;20378;-79
2023/05/24 13:18:52;;;;;;;4.45;1.88;;;;;;;;;;4973109;28;20034;-79
2023/05/24 13:21:18;;;;;;;5.57;1.75;;;;;;;;;;4973299;28;20023;-79
2023/05/24 13:23:45;;;;;;;5.50;1.75;;;;;;;;;;4973149;28;20027;-79
2023/05/24 13:26:11;;;;;;;5.85;1.90;;;;;;;;;;4973435;28;20030;-80
2023/05/24 13:28:38;;;;;;;6.28;2.22;;;;;;;;;;4973078;28;20035;-79
2023/05/24 13:31:04;;;;;;;4.32;1.88;;;;;;;;;;4972757;28;20532;-79
2023/05/24 13:33:33;;;;;;;8.73;1.95;;;22.30;55.10;;;;;;4973180;28;20023;-80
2023/05/24 13:36:00;;;;;;;6.30;1.92;;;;;;;;;;4972859;28;20687;-80
2023/05/24 13:38:27;;;;;;;7.28;2.20;;;;;;;;;;4973223;28;20078;-80
2023/05/24 13:40:54;;;;;;;6.63;2.00;;;22.40;57.90;;;;;;4972594;28;20045;-78
2023/05/24 13:43:20;;;;;;;4.10;1.85;;;;;;;;;;4972613;28;20074;-80
2023/05/24 13:45:47;;;;;;;5.57;1.90;;;;;;;;;;4972810;28;20035;-80
2023/05/24 13:48:13;;;;;;;5.72;1.58;;;;;;;;;;4973052;28;20031;-80
2023/05/24 13:50:40;;;;;;;5.45;1.80;;;;;;;;;;4974770;28;20504;-80
2023/05/24 13:53:06;;;;;;;7.68;1.88;;;;;;;;;;4976677;28;20033;-80
2023/05/24 13:55:34;;;;;;;4.57;1.92;;;22.50;59.50;;;;;;4976757;28;20121;-79
2023/05/24 13:58:03;;;;;;;7.35;2.00;;;;;;;;;;4976690;28;20034;-80
2023/05/24 14:00:30;;;;;;;4.65;1.95;;;;;;;;;;4976620;28;20098;-80
2023/05/24 14:02:56;;;;;;;3.63;1.67;;;;;;;;;;4975976;28;20055;-80
2023/05/24 14:05:23;;;;;;;5.90;1.92;;;;;;;;;;4976663;28;20146;-83
2023/05/24 14:07:49;;;;;;;6.90;1.98;;;;;;;;;;4976313;28;20474;-79
2023/05/24 14:10:15;;;;;;;6.20;1.58;;;;;;;;;;4976269;28;20034;-80
2023/05/24 14:12:41;;;;;;;8.23;2.15;;;;;;;;;;4976295;28;20031;-78
2023/05/24 14:15:07;;;;;;;6.60;2.10;;;;;;;;;;4975953;28;20424;-79